createdAt,value
2022-11-14T00:02:26.856Z,11.25
2022-11-14T00:05:14.412Z,11.21
2022-11-14T00:08:02.089Z,11.23
2022-11-14T00:10:51.350Z,11.21
2022-11-14T00:13:38.852Z,11.22
2022-11-14T00:16:26.113Z,11.26
2022-11-14T00:19:15.366Z,11.30
2022-11-14T00:22:03.127Z,11.32
2022-11-14T00:24:50.875Z,11.31
2022-11-14T00:27:38.230Z,11.29
2022-11-14T00:30:25.955Z,11.27
2022-11-14T00:33:18.729Z,11.27
2022-11-14T00:36:09.980Z,11.29
2022-11-14T00:38:57.780Z,11.30
2022-11-14T00:41:45.752Z,11.30
2022-11-14T00:44:33.093Z,11.30
2022-11-14T00:47:21.161Z,11.32
2022-11-14T00:50:09.545Z,11.32
2022-11-14T00:52:58.494Z,11.31
2022-11-14T00:55:45.699Z,11.27
2022-11-14T00:58:33.704Z,11.24
2022-11-14T01:01:21.140Z,11.19
2022-11-14T01:04:09.341Z,11.07
2022-11-14T01:06:56.716Z,11.13
2022-11-14T01:09:46.042Z,11.11
2022-11-14T01:12:34.417Z,11.09
2022-11-14T01:15:22.371Z,11.09
2022-11-14T01:18:11.518Z,11.07
2022-11-14T01:20:59.094Z,11.09
2022-11-14T01:23:46.628Z,11.07
2022-11-14T01:26:35.899Z,11.08
2022-11-14T01:29:23.194Z,11.03
2022-11-14T01:32:11.267Z,11.01
2022-11-14T01:34:58.894Z,10.99
2022-11-14T01:37:46.671Z,11.01
2022-11-14T01:40:34.309Z,10.99
2022-11-14T01:43:28.893Z,10.99
2022-11-14T01:46:20.380Z,11.02
2022-11-14T01:49:16.256Z,10.99
2022-11-14T01:52:07.449Z,11.00
2022-11-14T01:55:02.334Z,11.01
2022-11-14T01:57:50.822Z,10.95
2022-11-14T02:00:40.154Z,10.95
2022-11-14T02:03:27.759Z,10.89
2022-11-14T02:06:17.910Z,10.89
2022-11-14T02:09:08.131Z,10.89
2022-11-14T02:11:58.853Z,10.90
2022-11-14T02:14:48.475Z,10.90
2022-11-14T02:17:37.549Z,10.89
2022-11-14T02:20:28.708Z,10.89
2022-11-14T02:23:20.596Z,10.87
2022-11-14T02:26:07.854Z,10.81
2022-11-14T02:28:56.478Z,10.77
2022-11-14T02:31:44.086Z,10.80
2022-11-14T02:34:32.468Z,10.80
2022-11-14T02:37:21.340Z,10.79
2022-11-14T02:40:10.624Z,10.80
2022-11-14T02:42:58.053Z,10.80
2022-11-14T02:45:45.952Z,10.72
2022-11-14T02:48:33.223Z,10.66
2022-11-14T02:51:21.352Z,10.67
2022-11-14T02:54:10.358Z,10.67
2022-11-14T02:56:58.173Z,10.67
2022-11-14T02:59:45.646Z,10.66
2022-11-14T03:02:33.380Z,10.68
2022-11-14T03:05:21.596Z,10.68
2022-11-14T03:08:09.165Z,10.67
2022-11-14T03:11:04.470Z,10.65
2022-11-14T03:13:52.413Z,10.59
2022-11-14T03:16:39.894Z,10.61
2022-11-14T03:19:27.351Z,10.60
2022-11-14T03:22:15.272Z,10.57
2022-11-14T03:25:03.340Z,10.58
2022-11-14T03:27:51.873Z,10.62
2022-11-14T03:30:39.680Z,10.56
2022-11-14T03:33:27.300Z,10.52
2022-11-14T03:36:15.292Z,10.50
2022-11-14T03:39:02.795Z,10.51
2022-11-14T03:41:50.676Z,10.50
2022-11-14T03:44:39.360Z,10.50
2022-11-14T03:47:27.306Z,10.50
2022-11-14T03:50:14.480Z,10.50
2022-11-14T03:53:02.401Z,10.48
2022-11-14T03:55:49.771Z,10.46
2022-11-14T03:58:37.226Z,10.39
2022-11-14T04:01:26.174Z,10.39
2022-11-14T04:04:14.516Z,10.39
2022-11-14T04:07:02.153Z,10.38
2022-11-14T04:09:51.959Z,10.40
2022-11-14T04:12:39.484Z,10.38
2022-11-14T04:15:27.000Z,10.34
2022-11-14T04:18:16.026Z,10.34
2022-11-14T04:21:04.096Z,10.38
2022-11-14T04:23:51.962Z,10.40
2022-11-14T04:26:39.468Z,10.41
2022-11-14T04:29:26.867Z,10.40
2022-11-14T04:32:14.813Z,10.40
2022-11-14T04:35:03.819Z,10.43
2022-11-14T04:37:51.289Z,10.44
2022-11-14T04:40:39.042Z,10.46
2022-11-14T04:43:26.922Z,10.45
2022-11-14T04:46:14.294Z,10.46
2022-11-14T04:49:02.341Z,10.50
2022-11-14T04:51:51.304Z,10.44
2022-11-14T04:54:38.939Z,10.49
2022-11-14T04:57:26.187Z,10.48
2022-11-14T05:00:15.116Z,10.50
2022-11-14T05:03:02.758Z,10.46
2022-11-14T05:05:50.410Z,10.40
2022-11-14T05:08:39.290Z,10.43
2022-11-14T05:11:29.378Z,10.46
2022-11-14T05:14:17.134Z,10.43
2022-11-14T05:17:04.813Z,10.31
2022-11-14T05:19:52.528Z,10.32
2022-11-14T05:22:40.937Z,10.31
2022-11-14T05:25:29.875Z,10.32
2022-11-14T05:28:17.547Z,10.31
2022-11-14T05:31:06.140Z,10.34
2022-11-14T05:33:53.767Z,10.35
2022-11-14T05:36:41.164Z,10.30
2022-11-14T05:39:29.107Z,10.32
2022-11-14T05:42:18.127Z,10.32
2022-11-14T05:45:06.894Z,10.36
2022-11-14T05:47:55.023Z,10.36
2022-11-14T05:50:42.800Z,10.37
2022-11-14T05:53:31.254Z,10.38
2022-11-14T05:56:19.243Z,10.40
2022-11-14T05:59:08.167Z,10.42
2022-11-14T06:01:56.356Z,10.46
2022-11-14T06:04:43.956Z,10.48
2022-11-14T06:07:31.769Z,10.42
2022-11-14T06:10:19.231Z,10.38
2022-11-14T06:13:06.913Z,10.40
2022-11-14T06:15:59.348Z,10.38
2022-11-14T06:18:48.000Z,10.33
2022-11-14T06:21:35.509Z,10.31
2022-11-14T06:24:22.968Z,10.30
2022-11-14T06:27:10.311Z,10.27
2022-11-14T06:29:58.251Z,10.31
2022-11-14T06:32:47.123Z,10.34
2022-11-14T06:35:35.439Z,10.35
2022-11-14T06:38:23.054Z,10.29
2022-11-14T06:41:13.147Z,10.27
2022-11-14T06:44:00.687Z,10.24
2022-11-14T06:46:48.540Z,10.15
2022-11-14T06:49:40.484Z,10.11
2022-11-14T06:52:28.510Z,10.06
2022-11-14T06:55:18.644Z,10.04
2022-11-14T06:58:10.438Z,10.06
2022-11-14T07:00:58.603Z,10.01
2022-11-14T07:03:47.399Z,10.02
2022-11-14T07:06:36.314Z,9.98
2022-11-14T07:09:23.888Z,9.92
2022-11-14T07:12:11.509Z,9.94
2022-11-14T07:14:59.151Z,9.93
2022-11-14T07:17:48.514Z,9.86
2022-11-14T07:20:36.483Z,9.83
2022-11-14T07:23:25.303Z,9.86
2022-11-14T07:26:13.775Z,9.84
2022-11-14T07:29:02.712Z,9.82
2022-11-14T07:31:51.296Z,9.75
2022-11-14T07:34:39.239Z,9.73
2022-11-14T07:37:27.338Z,9.79
2022-11-14T07:40:16.891Z,9.85
2022-11-14T07:43:04.796Z,9.86
2022-11-14T07:45:52.539Z,9.82
2022-11-14T07:48:40.708Z,9.86
2022-11-14T07:51:28.060Z,9.90
2022-11-14T07:54:15.907Z,9.88
2022-11-14T07:57:04.656Z,9.90
2022-11-14T07:59:52.936Z,9.91
2022-11-14T08:02:40.334Z,9.92
2022-11-14T08:05:27.871Z,9.97
2022-11-14T08:08:15.671Z,9.98
2022-11-14T08:11:03.652Z,10.02
2022-11-14T08:13:52.719Z,10.04
2022-11-14T08:16:41.056Z,10.06
2022-11-14T08:19:28.366Z,10.03
2022-11-14T08:22:16.012Z,10.05
2022-11-14T08:25:03.733Z,10.06
2022-11-14T08:27:51.469Z,10.03
2022-11-14T08:30:40.188Z,10.01
2022-11-14T08:33:28.114Z,10.03
2022-11-14T08:36:15.590Z,10.10
2022-11-14T08:39:03.594Z,10.15
2022-11-14T08:41:51.164Z,10.19
2022-11-14T08:44:39.195Z,10.21
2022-11-14T08:47:28.005Z,10.23
2022-11-14T08:50:16.047Z,10.26
2022-11-14T08:53:03.522Z,10.27
2022-11-14T08:55:51.605Z,10.26
2022-11-14T08:58:39.217Z,10.26
2022-11-14T09:01:27.526Z,10.24
2022-11-14T09:04:16.758Z,10.25
2022-11-14T09:07:04.924Z,10.21
2022-11-14T09:09:52.387Z,10.23
2022-11-14T09:12:39.987Z,10.26
2022-11-14T09:15:28.478Z,10.27
2022-11-14T09:18:16.358Z,10.29
2022-11-14T09:21:07.488Z,10.21
2022-11-14T09:24:00.511Z,10.14
2022-11-14T09:26:55.255Z,10.05
2022-11-14T09:29:44.853Z,9.94
2022-11-14T09:32:32.465Z,9.91
2022-11-14T09:35:20.503Z,9.90
2022-11-14T09:38:12.447Z,9.90
2022-11-14T09:41:11.662Z,9.95
2022-11-14T09:44:20.508Z,9.93
2022-11-14T09:47:18.109Z,9.94
2022-11-14T09:50:14.098Z,9.95
2022-11-14T09:53:08.949Z,9.94
2022-11-14T09:55:58.664Z,9.85
2022-11-14T09:58:46.361Z,9.85
2022-11-14T10:01:45.177Z,9.83
2022-11-14T10:04:50.683Z,9.76
2022-11-14T10:07:52.892Z,9.82
2022-11-14T10:10:51.471Z,9.86
2022-11-14T10:13:54.163Z,9.82
2022-11-14T10:16:48.241Z,9.81
2022-11-14T10:19:43.263Z,9.82
2022-11-14T10:22:51.602Z,9.80
2022-11-14T10:25:50.643Z,9.71
2022-11-14T10:29:03.960Z,9.73
2022-11-14T10:32:01.628Z,9.75
2022-11-14T10:34:57.574Z,9.70
2022-11-14T10:37:54.433Z,9.65
2022-11-14T10:40:45.699Z,9.58
2022-11-14T10:43:39.252Z,9.55
2022-11-14T10:46:31.822Z,9.55
2022-11-14T10:49:23.156Z,9.57
2022-11-14T10:52:16.379Z,9.57
2022-11-14T10:55:09.303Z,9.60
2022-11-14T10:57:58.078Z,9.64
2022-11-14T11:00:45.584Z,9.59
2022-11-14T11:03:45.631Z,9.59
2022-11-14T11:06:33.199Z,9.56
2022-11-14T11:09:45.180Z,9.57
2022-11-14T11:12:46.047Z,9.57
2022-11-14T11:15:42.166Z,9.50
2022-11-14T11:18:31.720Z,9.49
2022-11-14T11:21:23.108Z,9.49
2022-11-14T11:24:11.038Z,9.50
2022-11-14T11:27:14.506Z,9.56
2022-11-14T11:30:23.131Z,9.54
2022-11-14T11:33:25.800Z,9.53
2022-11-14T11:36:17.700Z,9.51
2022-11-14T11:39:06.866Z,9.48
2022-11-14T11:42:11.988Z,9.49
2022-11-14T11:45:03.492Z,9.54
2022-11-14T11:47:57.246Z,9.52
2022-11-14T11:50:45.163Z,9.53
2022-11-14T11:53:39.940Z,9.53
2022-11-14T11:56:32.951Z,9.49
2022-11-14T11:59:34.618Z,9.49
2022-11-14T12:02:25.499Z,9.49
2022-11-14T12:05:17.458Z,9.50
2022-11-14T12:08:09.640Z,9.50
2022-11-14T12:10:59.238Z,9.45
2022-11-14T12:13:55.346Z,9.42
2022-11-14T12:17:11.493Z,9.37
2022-11-14T12:20:16.966Z,9.30
2022-11-14T12:23:37.996Z,9.30
2022-11-14T12:26:38.283Z,9.24
2022-11-14T12:29:47.714Z,9.19
2022-11-14T12:32:41.912Z,9.16
2022-11-14T12:35:33.353Z,9.15
2022-11-14T12:38:23.779Z,9.13
2022-11-14T12:41:11.797Z,9.18
2022-11-14T12:44:33.066Z,9.17
2022-11-14T12:47:23.810Z,9.10
2022-11-14T12:50:40.740Z,9.19
2022-11-14T12:53:45.148Z,9.22
2022-11-14T12:56:57.540Z,9.28
2022-11-14T12:59:58.570Z,9.24
2022-11-14T13:03:08.093Z,9.23
2022-11-14T13:06:02.279Z,9.20
2022-11-14T13:09:19.791Z,9.16
2022-11-14T13:12:48.059Z,9.08
2022-11-14T13:16:05.210Z,9.01
2022-11-14T13:19:14.593Z,9.01
2022-11-14T13:22:40.555Z,8.99
2022-11-14T13:25:28.190Z,8.99
2022-11-14T13:28:48.058Z,9.00
2022-11-14T13:31:48.702Z,8.99
2022-11-14T13:34:44.704Z,9.00
2022-11-14T13:37:58.841Z,8.92
2022-11-14T13:40:55.302Z,8.92
2022-11-14T13:43:57.464Z,8.86
2022-11-14T13:47:03.218Z,8.81
2022-11-14T13:50:04.609Z,8.81
2022-11-14T13:52:53.350Z,8.78
2022-11-14T13:55:54.350Z,8.75
2022-11-14T13:58:59.155Z,8.71
2022-11-14T14:02:05.912Z,8.69
2022-11-14T14:05:05.275Z,8.66
2022-11-14T14:08:23.579Z,8.63
2022-11-14T14:11:28.252Z,8.63
2022-11-14T14:14:32.765Z,8.55
2022-11-14T14:17:28.705Z,8.55
2022-11-14T14:20:32.627Z,8.47
2022-11-14T14:23:34.488Z,8.50
2022-11-14T14:26:31.469Z,8.48
2022-11-14T14:29:25.596Z,8.43
2022-11-14T14:32:14.710Z,8.38
2022-11-14T14:35:14.693Z,8.38
2022-11-14T14:38:11.264Z,8.41
2022-11-14T14:40:59.177Z,8.36
2022-11-14T14:43:54.425Z,8.32
2022-11-14T14:46:42.367Z,8.28
2022-11-14T14:49:35.832Z,8.24
2022-11-14T14:52:29.680Z,8.25
2022-11-14T14:55:29.591Z,8.28
2022-11-14T14:58:25.066Z,8.25
2022-11-14T15:01:15.902Z,8.30
2022-11-14T15:04:06.384Z,8.28
2022-11-14T15:06:56.148Z,8.28
2022-11-14T15:09:54.460Z,8.28
2022-11-14T15:12:44.237Z,8.23
2022-11-14T15:15:32.729Z,8.18
2022-11-14T15:18:25.490Z,8.19
2022-11-14T15:21:24.454Z,8.14
2022-11-14T15:24:18.205Z,8.17
2022-11-14T15:27:07.168Z,8.19
2022-11-14T15:30:02.088Z,8.20
2022-11-14T15:32:51.274Z,8.20
2022-11-14T15:35:40.702Z,8.20
2022-11-14T15:38:43.550Z,8.19
2022-11-14T15:41:33.053Z,8.20
2022-11-14T15:44:34.558Z,8.26
2022-11-14T15:47:25.444Z,8.19
2022-11-14T15:50:33.326Z,8.20
2022-11-14T15:53:25.572Z,8.24
2022-11-14T15:56:14.566Z,8.25
2022-11-14T15:59:03.935Z,8.23
2022-11-14T16:01:55.310Z,8.22
2022-11-14T16:04:47.883Z,8.22
2022-11-14T16:07:36.386Z,8.16
2022-11-14T16:10:26.314Z,8.15
2022-11-14T16:13:13.935Z,8.19
2022-11-14T16:16:01.468Z,8.20
2022-11-14T16:18:49.312Z,8.27
2022-11-14T16:21:39.723Z,8.20
2022-11-14T16:24:32.514Z,8.23
2022-11-14T16:27:22.393Z,8.24
2022-11-14T16:30:12.364Z,8.20
2022-11-14T16:33:00.763Z,8.21
2022-11-14T16:35:48.737Z,8.22
2022-11-14T16:38:37.472Z,8.23
2022-11-14T16:41:25.390Z,8.26
2022-11-14T16:44:17.687Z,8.24
2022-11-14T16:47:05.712Z,8.24
2022-11-14T16:49:53.162Z,8.26
2022-11-14T16:52:41.487Z,8.25
2022-11-14T16:55:30.504Z,8.31
2022-11-14T16:58:18.381Z,8.27
2022-11-14T17:01:11.605Z,8.24
2022-11-14T17:04:01.807Z,8.21
2022-11-14T17:06:49.140Z,8.16
2022-11-14T17:09:37.360Z,8.12
2022-11-14T17:12:26.333Z,8.10
2022-11-14T17:15:14.447Z,8.10
2022-11-14T17:18:01.716Z,8.09
2022-11-14T17:20:49.469Z,8.11
2022-11-14T17:23:36.764Z,8.10
2022-11-14T17:26:24.563Z,8.09
2022-11-14T17:29:13.209Z,8.06
2022-11-14T17:32:01.039Z,8.09
2022-11-14T17:34:48.763Z,8.07
2022-11-14T17:37:36.793Z,8.10
2022-11-14T17:40:24.201Z,8.11
2022-11-14T17:43:12.011Z,8.13
2022-11-14T17:46:01.165Z,8.14
2022-11-14T17:48:49.525Z,8.16
2022-11-14T17:51:36.869Z,8.14
2022-11-14T17:54:24.792Z,8.12
2022-11-14T17:57:13.231Z,8.07
2022-11-14T18:00:01.158Z,8.05
2022-11-14T18:02:49.972Z,8.07
2022-11-14T18:05:37.590Z,8.07
2022-11-14T18:08:25.890Z,8.05
2022-11-14T18:11:15.330Z,8.08
2022-11-14T18:14:03.118Z,8.08
2022-11-14T18:17:11.891Z,8.03
2022-11-14T18:20:00.785Z,7.99
2022-11-14T18:22:48.407Z,7.96
2022-11-14T18:25:36.003Z,7.92
2022-11-14T18:28:24.068Z,7.95
2022-11-14T18:31:13.515Z,7.97
2022-11-14T18:34:02.754Z,7.98
2022-11-14T18:36:52.026Z,7.93
2022-11-14T18:39:40.014Z,7.89
2022-11-14T18:42:27.436Z,7.90
2022-11-14T18:45:15.795Z,7.95
2022-11-14T18:48:03.097Z,8.00
2022-11-14T18:50:50.933Z,7.90
2022-11-14T18:53:40.605Z,7.89
2022-11-14T18:56:28.482Z,7.86
2022-11-14T18:59:15.786Z,7.86
2022-11-14T19:02:03.883Z,7.81
2022-11-14T19:04:51.776Z,7.74
2022-11-14T19:07:39.375Z,7.79
2022-11-14T19:10:28.197Z,7.86
2022-11-14T19:13:16.153Z,7.87
2022-11-14T19:16:04.688Z,7.89
2022-11-14T19:18:52.450Z,7.93
2022-11-14T19:21:40.225Z,7.91
2022-11-14T19:24:27.881Z,7.87
2022-11-14T19:27:16.952Z,7.88
2022-11-14T19:30:05.011Z,7.86
2022-11-14T19:32:52.568Z,7.84
2022-11-14T19:35:40.519Z,7.80
2022-11-14T19:38:28.028Z,7.76
2022-11-14T19:41:17.817Z,7.73
2022-11-14T19:44:06.682Z,7.73
2022-11-14T19:46:54.765Z,7.81
2022-11-14T19:49:42.805Z,7.79
2022-11-14T19:52:30.674Z,7.79
2022-11-14T19:55:18.034Z,7.78
2022-11-14T19:58:06.872Z,7.76
2022-11-14T20:01:02.357Z,7.76
2022-11-14T20:03:54.048Z,7.73
2022-11-14T20:06:42.366Z,7.72
2022-11-14T20:09:30.923Z,7.70
2022-11-14T20:12:18.370Z,7.65
2022-11-14T20:15:06.733Z,7.65
2022-11-14T20:17:55.436Z,7.70
2022-11-14T20:20:43.692Z,7.65
2022-11-14T20:23:31.491Z,7.64
2022-11-14T20:26:20.680Z,7.61
2022-11-14T20:29:08.259Z,7.63
2022-11-14T20:31:55.927Z,7.62
2022-11-14T20:34:45.240Z,7.63
2022-11-14T20:37:33.335Z,7.63
2022-11-14T20:40:21.289Z,7.65
2022-11-14T20:43:09.700Z,7.63
2022-11-14T20:45:58.808Z,7.64
2022-11-14T20:48:47.788Z,7.63
2022-11-14T20:51:37.632Z,7.64
2022-11-14T20:54:26.957Z,7.61
2022-11-14T20:57:14.579Z,7.63
2022-11-14T21:00:02.489Z,7.66
2022-11-14T21:02:50.237Z,7.66
2022-11-14T21:05:40.593Z,7.66
2022-11-14T21:08:29.733Z,7.61
2022-11-14T21:11:19.108Z,7.61
2022-11-14T21:14:06.583Z,7.62
2022-11-14T21:16:54.607Z,7.65
2022-11-14T21:19:42.115Z,7.63
2022-11-14T21:22:30.160Z,7.62
2022-11-14T21:25:19.465Z,7.62
2022-11-14T21:28:07.406Z,7.63
2022-11-14T21:30:54.808Z,7.68
2022-11-14T21:33:42.658Z,7.68
2022-11-14T21:36:44.468Z,7.65
2022-11-14T21:39:33.449Z,7.67
2022-11-14T21:42:22.361Z,7.65
2022-11-14T21:45:11.539Z,7.61
2022-11-14T21:47:59.028Z,7.57
2022-11-14T21:50:46.752Z,7.53
2022-11-14T21:53:34.691Z,7.51
2022-11-14T21:56:23.902Z,7.49
2022-11-14T21:59:18.371Z,7.54
2022-11-14T22:02:23.670Z,7.46
2022-11-14T22:05:11.296Z,7.41
2022-11-14T22:07:59.251Z,7.41
2022-11-14T22:10:46.690Z,7.39
2022-11-14T22:13:34.587Z,7.41
2022-11-14T22:16:23.942Z,7.32
2022-11-14T22:19:11.540Z,7.38
2022-11-14T22:21:59.136Z,7.40
2022-11-14T22:24:46.828Z,7.40
2022-11-14T22:27:34.531Z,7.38
2022-11-14T22:30:22.255Z,7.40
2022-11-14T22:33:11.358Z,7.39
2022-11-14T22:36:03.429Z,7.34
2022-11-14T22:38:52.377Z,7.34
2022-11-14T22:41:39.966Z,7.35
2022-11-14T22:44:27.658Z,7.33
2022-11-14T22:47:15.487Z,7.32
2022-11-14T22:50:04.592Z,7.30
2022-11-14T22:52:52.171Z,7.25
2022-11-14T22:55:46.965Z,7.26
2022-11-14T22:58:36.637Z,7.24
2022-11-14T23:01:26.524Z,7.27
2022-11-14T23:04:14.611Z,7.24
2022-11-14T23:07:03.503Z,7.21
2022-11-14T23:09:51.275Z,7.14
2022-11-14T23:12:38.802Z,7.22
2022-11-14T23:15:26.857Z,7.22
2022-11-14T23:18:14.847Z,7.18
2022-11-14T23:21:05.709Z,7.17
2022-11-14T23:23:59.035Z,7.25
2022-11-14T23:26:46.930Z,7.24
2022-11-14T23:29:34.210Z,7.23
2022-11-14T23:32:22.155Z,7.26
2022-11-14T23:35:10.247Z,7.29
2022-11-14T23:38:02.907Z,7.28
2022-11-14T23:40:54.992Z,7.27
2022-11-14T23:43:42.615Z,7.32
2022-11-14T23:46:30.131Z,7.33
2022-11-14T23:49:17.867Z,7.32
2022-11-14T23:52:05.490Z,7.38
2022-11-14T23:54:53.220Z,7.43
2022-11-14T23:57:41.977Z,7.46
